Terminal Aerodrome Forecast
Issued by NWS Sterling, VA

Current Version | Previous Version | Graphics & Text | Print | Product List | Glossary Off
Versions: 1 2 3 4 5 6 7 8 9 10 11 12 13 14 15 16 17 18 19 20 21 22

000
FTUS41 KLWX 162300
TAFDCA
TAF
KDCA 162327Z 1700/1724 35009KT P6SM FEW060
     FM170200 02004KT P6SM SCT200
     FM171500 07005KT P6SM SCT050
     FM172000 13005KT P6SM FEW050=

USA.gov is the U.S. government's official web portal to all federal, state and local government web resources and services.